Time;durP1;ratioP1;P1;durP2;ratioP2;P2;SDS_P1;SDS_P2;PMS_P1;PMS_P2;Temp;Humidity;BMP_temperature;BMP_pressure;BME280_temperature;BME280_humidity;BME280_pressure;Samples;Min_cycle;Max_cycle;Signal;HPM_P1;HPM_P2
2022/09/26 00:00:06;;;;;;;11.97;10.20;;;;;;;14.10;65.37;100199.47;1677944;85;21274;-74
2022/09/26 00:02:35;;;;;;;11.73;9.23;;;;;;;14.12;65.42;100196.51;1679098;84;21344;-75
2022/09/26 00:05:01;;;;;;;13.03;10.13;;;;;;;14.13;65.43;100194.06;1679388;85;21312;-75
2022/09/26 00:07:29;;;;;;;13.13;10.10;;;;;;;14.08;65.41;100189.55;1680578;85;21127;-75
2022/09/26 00:09:57;;;;;;;11.03;9.63;;;;;;;13.99;65.52;100192.64;1653225;86;21079;-74
2022/09/26 00:12:24;;;;;;;11.43;9.77;;;;;;;13.96;65.64;100194.56;1655124;85;21424;-74
2022/09/26 00:14:51;;;;;;;13.00;9.50;;;;;;;13.96;65.71;100198.59;1678912;85;21350;-75
2022/09/26 00:17:19;;;;;;;14.43;9.57;;;;;;;13.98;65.79;100201.77;1667043;85;21900;-74
2022/09/26 00:19:46;;;;;;;12.57;10.20;;;;;;;14.00;65.78;100195.58;1647562;87;21567;-75
2022/09/26 00:22:14;;;;;;;12.03;10.30;;;;;;;14.00;65.82;100195.58;1648373;87;21209;-75
2022/09/26 00:24:40;;;;;;;14.70;9.43;;;;;;;14.04;65.82;100186.64;1647579;87;21507;-74
2022/09/26 00:27:07;;;;;;;12.20;9.20;;;;;;;14.05;65.77;100185.58;1647760;87;21178;-75
2022/09/26 00:29:34;;;;;;;12.37;9.80;;;;;;;14.04;65.78;100189.87;1625600;85;21356;-74
2022/09/26 00:32:01;;;;;;;11.87;9.13;;;;;;;14.04;65.74;100179.13;1677480;85;21231;-74
2022/09/26 00:34:28;;;;;;;11.33;8.87;;;;;;;14.05;65.76;100178.06;1677801;85;21057;-74
2022/09/26 00:36:55;;;;;;;9.97;8.90;;;;;;;14.03;65.73;100166.80;1677810;85;21295;-74
2022/09/26 00:39:21;;;;;;;11.50;8.93;;;;;;;13.95;65.70;100167.44;1677671;85;21340;-75
2022/09/26 00:41:48;;;;;;;9.77;8.37;;;;;;;13.86;65.81;100163.27;1677827;85;21102;-74
2022/09/26 00:44:43;;;;;;;11.10;8.80;;;;;;;13.82;65.89;100166.28;1677399;85;21738;-74
2022/09/26 00:47:21;;;;;;;9.60;8.30;;;;;;;13.79;66.02;100167.65;1677512;84;21360;-75
2022/09/26 00:49:48;;;;;;;11.60;8.63;;;;;;;13.79;66.13;100168.98;1677972;85;21319;-75
2022/09/26 00:52:23;;;;;;;10.77;8.57;;;;;;;13.83;66.15;100163.30;1650612;85;21302;-75
2022/09/26 00:54:52;;;;;;;10.80;8.33;;;;;;;13.88;66.10;100161.63;1677703;85;21265;-74
2022/09/26 00:57:23;;;;;;;10.50;8.43;;;;;;;13.90;66.10;100170.20;1677537;85;21616;-75
2022/09/26 00:59:56;;;;;;;9.10;8.03;;;;;;;13.88;66.01;100179.87;1673215;85;21171;-75
2022/09/26 01:02:26;;;;;;;9.45;7.85;;;;;;;13.89;65.91;100182.03;1677478;85;21129;-75
2022/09/26 01:04:54;;;;;;;9.87;8.27;;;;;;;13.89;65.86;100172.09;1677482;85;23047;-74
2022/09/26 01:07:23;;;;;;;9.10;7.53;;;;;;;13.95;65.87;100171.46;1663043;85;21374;-74
2022/09/26 01:09:50;;;;;;;11.90;8.73;;;;;;;14.02;65.79;100171.38;1624733;87;21290;-75
2022/09/26 01:12:16;;;;;;;10.43;7.90;;;;;;;14.05;65.66;100170.80;1623841;87;21327;-75
2022/09/26 01:14:45;;;;;;;11.93;8.87;;;;;;;14.13;65.57;100163.97;1650408;87;21373;-74
2022/09/26 01:17:12;;;;;;;9.43;7.50;;;;;;;14.18;65.41;100166.60;1650513;87;21311;-75
2022/09/26 01:19:44;;;;;;;9.27;8.10;;;;;;;14.23;65.27;100159.80;1674938;85;21754;-74
2022/09/26 01:22:31;;;;;;;10.13;8.27;;;;;;;14.24;65.12;100154.67;1677368;85;21359;-75
2022/09/26 01:25:43;;;;;;;9.30;7.97;;;;;;;14.28;65.06;100156.23;1677569;85;21422;-74
2022/09/26 01:28:47;;;;;;;9.85;8.15;;;;;;;14.30;64.87;100148.14;1676981;85;21408;-75
2022/09/26 01:32:47;;;;;;;9.70;7.70;;;;;;;14.34;64.87;100151.59;1677535;85;21636;-75
2022/09/26 01:34:23;;;;;;;10.03;8.03;;;;;;;14.33;64.85;100157.52;1680434;84;21329;-75
2022/09/26 01:37:16;;;;;;;9.27;7.57;;;;;;;14.35;64.90;100156.69;1677812;85;21468;-75
2022/09/26 01:39:57;;;;;;;9.63;7.77;;;;;;;14.35;64.95;100154.55;1677681;85;21325;-75
2022/09/26 01:42:41;;;;;;;11.47;8.03;;;;;;;14.35;65.05;100154.55;1677473;85;21216;-74
2022/09/26 01:45:23;;;;;;;9.70;7.90;;;;;;;14.35;65.06;100154.55;1677373;85;21852;-74
2022/09/26 01:48:17;;;;;;;10.50;7.85;;;;;;;14.35;65.08;100155.34;1677688;85;21334;-76
2022/09/26 01:50:56;;;;;;;10.10;7.90;;;;;;;14.34;65.07;100159.09;1677546;85;21012;-73
2022/09/26 01:53:37;;;;;;;9.23;8.00;;;;;;;14.35;65.01;100161.27;1677633;85;21613;-74
2022/09/26 01:56:16;;;;;;;10.97;8.03;;;;;;;14.36;64.99;100159.62;1650340;85;21831;-73
2022/09/26 01:59:10;;;;;;;9.43;7.93;;;;;;;14.38;64.86;100157.97;1677660;85;21253;-73
2022/09/26 02:01:40;;;;;;;10.67;8.20;;;;;;;14.36;64.82;100155.59;1677424;85;21232;-73
2022/09/26 02:04:12;;;;;;;9.00;7.87;;;;;;;14.33;64.84;100154.03;1677857;85;21252;-74
2022/09/26 02:06:52;;;;;;;14.38;8.75;;;;;;;14.26;64.98;100149.81;1655320;85;21107;-74
2022/09/26 02:09:26;;;;;;;12.67;10.30;;;;;;;14.24;65.08;100150.64;1650468;85;21129;-74
2022/09/26 02:11:57;;;;;;;11.50;9.20;;;;;;;14.19;65.20;100178.14;1658208;85;21128;-74
2022/09/26 02:14:28;;;;;;;11.00;9.03;;;;;;;14.10;65.37;100161.87;1677950;85;21234;-74
2022/09/26 02:16:59;;;;;;;14.20;9.28;;;;;;;14.07;65.48;100171.84;1677810;85;28992;-73
2022/09/26 02:19:37;;;;;;;11.38;8.40;;;;;;;14.06;65.63;100170.25;1677739;85;21102;-74
2022/09/26 02:22:04;;;;;;;10.30;8.70;;;;;;;14.08;65.72;100166.20;1669092;85;21267;-73
2022/09/26 02:24:32;;;;;;;10.87;8.30;;;;;;;14.13;65.78;100160.50;1628345;85;21488;-74
2022/09/26 02:26:58;;;;;;;9.80;8.23;;;;;;;14.17;65.80;100173.05;1677607;85;21877;-73
2022/09/26 02:29:25;;;;;;;10.20;8.67;;;;;;;14.19;65.80;100165.51;1677739;85;21117;-74
2022/09/26 02:32:14;;;;;;;12.13;9.77;;;;;;;14.22;65.90;100161.45;1677771;85;21253;-73
2022/09/26 02:34:44;;;;;;;10.63;8.97;;;;;;;14.24;65.98;100166.77;1677808;85;21238;-73
2022/09/26 02:37:12;;;;;;;10.17;8.70;;;;;;;14.26;66.03;100164.59;1677724;85;22082;-73
2022/09/26 02:39:40;;;;;;;11.07;8.40;;;;;;;14.30;66.06;100161.57;1677744;85;21255;-73
2022/09/26 02:42:38;;;;;;;10.73;8.60;;;;;;;14.34;66.04;100158.30;1677832;84;21291;-74
2022/09/26 02:45:41;;;;;;;9.93;8.30;;;;;;;14.34;66.01;100150.24;1677638;85;21368;-74
2022/09/26 02:48:28;;;;;;;9.47;8.47;;;;;;;14.31;66.08;100145.73;1650380;85;21926;-74
2022/09/26 02:51:16;;;;;;;10.47;8.43;;;;;;;14.28;66.15;100144.96;1678001;84;21281;-73
2022/09/26 02:54:14;;;;;;;10.00;8.40;;;;;;;14.25;66.23;100140.72;1676350;85;21281;-75
2022/09/26 02:57:23;;;;;;;10.43;8.63;;;;;;;14.23;66.37;100137.52;1673839;85;21086;-74
2022/09/26 03:00:07;;;;;;;10.23;8.33;;;;;;;14.25;66.46;100140.72;1677617;85;21196;-74
2022/09/26 03:02:46;;;;;;;10.80;8.70;;;;;;;14.28;66.52;100141.45;1660316;85;21386;-75
2022/09/26 03:05:25;;;;;;;9.43;8.43;;;;;;;14.28;66.43;100135.56;1632830;85;23095;-74
2022/09/26 03:08:01;;;;;;;9.93;8.00;;;;;;;14.26;66.36;100131.56;1693633;84;21018;-75
2022/09/26 03:10:29;;;;;;;9.43;8.07;;;;;;;14.22;66.38;100132.70;1693208;84;21350;-74
2022/09/26 03:13:06;;;;;;;8.93;7.73;;;;;;;14.23;66.35;100132.14;1693616;84;21347;-75
2022/09/26 03:15:34;;;;;;;11.47;7.87;;;;;;;14.24;66.32;100134.52;1693394;84;21249;-75
2022/09/26 03:18:31;;;;;;;10.87;8.00;;;;;;;14.24;66.28;100129.70;1725535;81;21185;-76
2022/09/26 03:20:58;;;;;;;8.20;7.20;;;;;;;14.18;66.24;100124.97;1703466;82;21417;-75
2022/09/26 03:23:26;;;;;;;9.20;7.90;;;;;;;14.09;66.33;100114.63;1678208;85;21211;-74
2022/09/26 03:26:00;;;;;;;9.03;7.50;;;;;;;13.95;66.43;100104.34;1677839;85;21324;-74
2022/09/26 03:28:28;;;;;;;10.23;7.50;;;;;;;13.87;66.64;100110.38;1649121;87;21301;-75
2022/09/26 03:30:54;;;;;;;9.57;7.20;;;;;;;13.89;66.87;100109.55;1677374;85;21259;-75
2022/09/26 03:33:24;;;;;;;9.13;7.33;;;;;;;13.94;67.01;100111.59;1677454;85;21710;-74
2022/09/26 03:35:51;;;;;;;9.90;7.60;;;;;;;13.99;66.98;100118.80;1677561;85;21226;-75
2022/09/26 03:38:19;;;;;;;8.13;7.27;;;;;;;14.01;66.93;100118.74;1677859;85;21154;-75
2022/09/26 03:40:52;;;;;;;10.13;8.00;;;;;;;14.03;66.89;100119.81;1678438;84;21452;-75
2022/09/26 03:43:24;;;;;;;9.47;7.40;;;;;;;14.02;66.94;100119.02;1661946;84;21060;-74
2022/09/26 03:45:51;;;;;;;8.80;7.83;;;;;;;14.06;66.92;100127.29;1677493;85;21317;-75
2022/09/26 03:48:20;;;;;;;9.07;8.10;;;;;;;14.08;66.96;100127.26;1677784;84;21337;-74
2022/09/26 03:50:47;;;;;;;9.50;7.30;;;;;;;14.12;66.94;100126.68;1671903;85;21916;-75
2022/09/26 03:53:15;;;;;;;10.07;8.37;;;;;;;14.13;66.95;100129.61;1643032;87;21894;-74
2022/09/26 03:55:42;;;;;;;10.10;7.30;;;;;;;14.17;66.90;100128.73;1649782;85;21951;-74
2022/09/26 03:58:09;;;;;;;8.13;7.10;;;;;;;14.19;66.88;100124.42;1648899;87;21370;-74
2022/09/26 04:00:38;;;;;;;8.80;7.10;;;;;;;14.23;66.77;100122.74;1648980;87;21321;-73
2022/09/26 04:03:06;;;;;;;8.70;7.57;;;;;;;14.28;66.56;100121.30;1635549;87;21209;-75
2022/09/26 04:05:37;;;;;;;9.30;7.40;;;;;;;14.31;66.43;100120.20;1650358;85;21330;-74
2022/09/26 04:08:05;;;;;;;8.50;7.10;;;;;;;14.36;66.31;100126.58;1649961;86;21087;-74
2022/09/26 04:10:32;;;;;;;9.07;7.33;;;;;;;14.35;66.16;100120.97;1653694;85;21278;-73
2022/09/26 04:12:59;;;;;;;7.53;6.67;;;;;;;14.32;66.20;100118.31;1677677;85;21866;-73
2022/09/26 04:15:25;;;;;;;9.43;6.90;;;;;;;14.29;66.20;100116.20;1677457;85;21299;-74
2022/09/26 04:17:54;;;;;;;9.27;7.07;;;;;;;14.22;66.23;100119.27;1675799;85;21345;-73
2022/09/26 04:20:23;;;;;;;9.63;6.80;;;;;;;14.16;66.43;100121.77;1677443;85;21726;-75
2022/09/26 04:22:51;;;;;;;8.17;6.80;;;;;;;14.12;66.54;100122.10;1677705;85;21396;-74
2022/09/26 04:25:18;;;;;;;7.60;6.77;;;;;;;14.09;66.65;100125.37;1677680;85;21209;-75
2022/09/26 04:27:45;;;;;;;9.80;6.63;;;;;;;14.10;66.83;100118.10;1677804;85;21213;-75
2022/09/26 04:30:12;;;;;;;8.70;7.00;;;;;;;14.13;66.83;100120.21;1677823;85;21273;-74
2022/09/26 04:32:51;;;;;;;7.73;6.40;;;;;;;14.15;66.78;100122.86;1678018;84;21236;-74
2022/09/26 04:35:35;;;;;;;9.70;6.60;;;;;;;14.19;66.75;100121.73;1677561;85;21370;-74
2022/09/26 04:38:03;;;;;;;8.30;6.57;;;;;;;14.19;66.63;100119.84;1677514;85;21194;-75
2022/09/26 04:40:31;;;;;;;10.93;7.47;;;;;;;14.21;66.71;100124.36;1696481;84;21864;-73
2022/09/26 04:43:04;;;;;;;8.33;6.90;;;;;;;14.22;66.72;100131.35;1677536;85;21341;-75
2022/09/26 04:45:31;;;;;;;7.40;6.00;;;;;;;14.25;66.78;100125.95;1677293;85;21330;-75
2022/09/26 04:47:58;;;;;;;7.67;6.87;;;;;;;14.29;66.82;100124.27;1677789;85;21285;-73
2022/09/26 04:50:27;;;;;;;7.87;6.57;;;;;;;14.33;66.77;100124.48;1680336;84;21362;-74
2022/09/26 04:53:07;;;;;;;9.43;6.63;;;;;;;14.36;66.73;100127.38;1675494;84;21338;-74
2022/09/26 04:55:36;;;;;;;7.77;6.40;;;;;;;14.38;66.68;100126.55;1668450;85;21327;-74
2022/09/26 04:58:03;;;;;;;7.90;6.20;;;;;;;14.39;66.61;100121.97;1677693;85;21024;-74
2022/09/26 05:00:30;;;;;;;7.30;6.30;;;;;;;14.40;66.46;100123.00;1677109;85;21425;-74
2022/09/26 05:02:59;;;;;;;8.43;6.67;;;;;;;14.41;66.26;100126.48;1669898;85;21141;-74
2022/09/26 05:05:29;;;;;;;6.50;5.80;;;;;;;14.42;66.17;100116.80;1677475;85;21378;-75
2022/09/26 05:07:56;;;;;;;8.47;6.00;;;;;;;14.45;66.00;100120.25;1677588;85;21271;-74
2022/09/26 05:10:23;;;;;;;7.67;6.30;;;;;;;14.46;65.79;100128.56;1677434;85;21225;-75
2022/09/26 05:12:52;;;;;;;6.40;5.67;;;;;;;14.48;65.53;100133.11;1677469;85;21280;-75
2022/09/26 05:15:20;;;;;;;6.90;5.70;;;;;;;14.47;65.17;100129.35;1677433;85;21320;-75
2022/09/26 05:17:59;;;;;;;6.93;5.60;;;;;;;14.46;64.96;100128.56;1677619;85;21311;-74
2022/09/26 05:20:30;;;;;;;7.70;6.10;;;;;;;14.45;64.75;100125.63;1677579;85;21297;-74
2022/09/26 05:23:01;;;;;;;7.33;5.90;;;;;;;14.44;64.68;100121.87;1677579;85;21628;-74
2022/09/26 05:28:16;;;;;;;7.23;5.90;;;;;;;14.44;64.51;100114.61;1654644;85;21237;-74
2022/09/26 05:30:42;;;;;;;7.90;5.63;;;;;;;14.46;64.39;100113.78;1677499;85;21227;-74
2022/09/26 05:33:11;;;;;;;6.43;5.77;;;;;;;14.48;64.28;100102.75;1677517;85;21424;-74
2022/09/26 05:35:39;;;;;;;6.73;5.60;;;;;;;14.49;64.13;100107.02;1677508;85;22574;-75
2022/09/26 05:38:06;;;;;;;8.07;5.90;;;;;;;14.51;64.07;100111.58;1677610;85;21330;-75
2022/09/26 05:43:18;;;;;;;7.83;5.60;;;;;;;14.50;64.05;100108.61;1677628;85;21215;-75
2022/09/26 05:45:48;;;;;;;7.30;5.80;;;;;;;14.50;64.12;100115.33;1677790;85;21753;-75
2022/09/26 05:48:16;;;;;;;7.60;6.13;;;;;;;14.49;64.29;100110.50;1677631;85;21241;-75
2022/09/26 05:50:43;;;;;;;8.27;6.33;;;;;;;14.48;64.46;100113.50;1677346;85;21187;-74
2022/09/26 05:53:10;;;;;;;7.60;6.00;;;;;;;14.50;64.68;100112.13;1677864;85;21250;-75
2022/09/26 05:55:37;;;;;;;10.17;6.43;;;;;;;14.53;64.75;100111.53;1678166;85;21419;-74
2022/09/26 05:58:22;;;;;;;8.00;6.43;;;;;;;14.56;64.77;100108.81;1677558;85;21405;-75
2022/09/26 06:01:11;;;;;;;9.63;6.53;;;;;;;14.58;64.71;100107.98;1653871;85;21279;-75
2022/09/26 06:03:42;;;;;;;8.33;6.73;;;;;;;14.55;64.69;100100.51;1623818;87;21299;-75
2022/09/26 06:06:14;;;;;;;9.03;6.65;;;;;;;14.52;64.75;100104.58;1649942;85;21224;-75
2022/09/26 06:08:42;;;;;;;9.28;6.97;;;;;;;14.54;64.74;100090.31;1649960;85;20981;-75
2022/09/26 06:11:21;;;;;;;9.57;6.60;;;;;;;14.52;64.81;100089.00;1631924;87;21146;-74
2022/09/26 06:13:48;;;;;;;7.73;6.57;;;;;;;14.48;64.89;100088.77;1650238;87;21577;-74
2022/09/26 06:16:17;;;;;;;11.63;6.60;;;;;;;14.48;65.01;100087.42;1650291;87;21262;-75
2022/09/26 06:18:47;;;;;;;11.27;6.90;;;;;;;14.52;65.11;100086.31;1650323;87;21832;-75
2022/09/26 06:21:16;;;;;;;9.23;6.50;;;;;;;14.65;65.37;100080.73;1674481;85;21334;-74
2022/09/26 06:23:43;;;;;;;9.37;7.23;;;;;;;14.65;65.37;100080.73;1677852;85;21364;-76
2022/09/26 06:26:22;;;;;;;12.60;7.00;;;;;;;14.68;65.03;100087.65;1677381;85;21365;-76
2022/09/26 06:29:00;;;;;;;10.00;7.30;;;;;;;14.72;64.97;100087.30;1650199;87;21280;-75
2022/09/26 06:31:24;;;;;;;8.67;7.23;;;;;;;14.77;64.87;100087.23;1649818;86;21331;-74
2022/09/26 06:34:11;;;;;;;9.17;6.77;;;;;;;14.83;64.74;100090.60;1650185;87;21336;-76
2022/09/26 06:36:51;;;;;;;10.00;7.50;;;;;;;14.87;64.63;100093.49;1649942;87;21293;-75
2022/09/26 06:39:18;;;;;;;11.17;6.93;;;;;;;14.90;64.53;100096.38;1650147;87;21380;-75
2022/09/26 06:41:46;;;;;;;9.60;7.33;;;;;;;14.88;64.47;100105.31;1649935;87;21389;-75
2022/09/26 06:44:15;;;;;;;9.47;6.93;;;;;;;14.86;64.54;100102.66;1661092;85;21362;-75
2022/09/26 06:47:04;;;;;;;8.53;6.67;;;;;;;14.84;64.56;100095.42;1677557;85;21459;-74
2022/09/26 06:49:33;;;;;;;13.57;7.30;;;;;;;14.81;65.04;100099.53;1678062;84;21376;-74
2022/09/26 06:52:02;;;;;;;10.67;7.13;;;;;;;14.81;65.04;100099.53;1694339;84;21326;-75
2022/09/26 06:54:29;;;;;;;8.90;6.67;;;;;;;14.87;64.82;100115.00;1670272;86;21472;-75
2022/09/26 06:56:56;;;;;;;9.30;6.67;;;;;;;14.90;64.80;100113.86;1719376;83;21498;-76
2022/09/26 06:59:23;;;;;;;8.60;6.73;;;;;;;15.01;64.72;100119.88;1695868;83;21393;-74
2022/09/26 07:01:53;;;;;;;7.70;6.57;;;;;;;15.03;64.61;100113.63;1706405;83;21777;-76
2022/09/26 07:04:39;;;;;;;9.50;6.83;;;;;;;15.08;64.42;100112.20;1759918;81;21340;-75
2022/09/26 07:07:08;;;;;;;10.70;7.23;;;;;;;15.13;64.36;100109.95;1758483;81;21300;-74
2022/09/26 07:09:36;;;;;;;8.63;6.70;;;;;;;15.17;64.26;100112.33;1809066;78;78609;-75
2022/09/26 07:12:17;;;;;;;9.87;6.93;;;;;;;15.21;64.21;100111.97;1757225;79;21566;-76
2022/09/26 07:14:46;;;;;;;9.10;6.90;;;;;;;15.33;64.15;100115.49;1818554;79;21829;-75
2022/09/26 07:17:17;;;;;;;10.13;6.97;;;;;;;15.33;64.15;100115.49;1798657;78;21501;-76
2022/09/26 07:19:52;;;;;;;9.00;6.97;;;;;;;15.40;64.03;100115.89;1733885;82;21387;-77
2022/09/26 07:22:38;;;;;;;9.53;6.90;;;;;;;15.57;63.77;100106.67;1809760;79;21366;-77
2022/09/26 07:25:06;;;;;;;9.17;6.93;;;;;;;15.57;63.77;100106.67;1819652;79;21388;-76
2022/09/26 07:27:35;;;;;;;8.93;7.13;;;;;;;15.67;63.75;100102.45;1818378;79;21951;-77
2022/09/26 07:30:05;;;;;;;9.57;6.47;;;;;;;15.81;63.14;100100.28;1818476;79;21672;-76
2022/09/26 07:32:32;;;;;;;9.97;6.60;;;;;;;15.84;63.49;100092.39;1795820;79;21427;-77
2022/09/26 07:35:07;;;;;;;9.97;6.77;;;;;;;15.84;63.49;100092.39;1752981;78;21615;-77
2022/09/26 07:37:34;;;;;;;11.83;6.80;;;;;;;16.00;63.03;100090.16;1826367;78;21694;-76
2022/09/26 07:40:01;;;;;;;10.03;6.83;;;;;;;16.04;62.75;100080.91;1803607;78;21660;-76
2022/09/26 07:42:29;;;;;;;13.27;7.20;;;;;;;16.04;62.75;100080.91;1765875;81;21505;-76
2022/09/26 07:44:56;;;;;;;9.13;6.50;;;;;;;16.09;62.72;100088.34;1797507;79;21656;-76
2022/09/26 07:50:13;;;;;;;9.67;6.97;;;;;;;16.14;62.19;100080.11;1785603;78;21762;-76
2022/09/26 07:53:01;;;;;;;8.27;6.20;;;;;;;16.14;61.88;100076.08;1808677;79;21536;-75
2022/09/26 07:55:28;;;;;;;9.43;6.70;;;;;;;16.18;61.67;100077.60;1818262;79;21614;-75
2022/09/26 07:58:13;;;;;;;9.80;6.83;;;;;;;16.22;61.62;100075.88;1792525;79;22136;-77
2022/09/26 08:00:53;;;;;;;8.73;6.43;;;;;;;16.29;61.52;100079.53;1752916;80;21596;-76
2022/09/26 08:03:40;;;;;;;9.10;6.93;;;;;;;16.35;61.34;100075.58;1727689;81;21692;-77
2022/09/26 08:06:11;;;;;;;7.25;6.20;;;;;;;16.40;61.19;100076.81;1767327;80;21722;-76
2022/09/26 08:08:42;;;;;;;8.93;6.80;;;;;;;16.44;61.00;100076.44;1786053;80;21000;-75
2022/09/26 08:11:19;;;;;;;9.03;6.90;;;;;;;16.49;60.77;100082.27;1763453;80;21571;-76
2022/09/26 08:13:48;;;;;;;8.53;6.63;;;;;;;16.52;60.68;100077.06;1766219;81;21670;-75
2022/09/26 08:16:38;;;;;;;11.47;7.07;;;;;;;16.57;60.49;100072.87;1767386;81;22347;-76
2022/09/26 08:19:05;;;;;;;9.87;6.27;;;;;;;16.64;60.10;100073.22;1785753;80;22331;-76
2022/09/26 08:21:32;;;;;;;10.57;6.83;;;;;;;16.71;59.82;100071.98;1767291;81;21752;-76
2022/09/26 08:24:01;;;;;;;8.70;6.43;;;;;;;16.76;59.45;100067.86;1767462;81;22203;-76
2022/09/26 08:26:27;;;;;;;7.53;5.80;;;;;;;16.83;59.24;100050.67;1767354;79;21633;-75
2022/09/26 08:29:02;;;;;;;9.47;6.07;;;;;;;16.94;59.10;100049.27;1766676;81;22398;-75
2022/09/26 08:31:29;;;;;;;7.43;5.70;;;;;;;17.07;58.96;100033.53;1767414;81;21610;-75
2022/09/26 08:33:57;;;;;;;7.53;5.70;;;;;;;17.24;58.74;100030.63;1767307;81;20978;-77
2022/09/26 08:36:25;;;;;;;6.87;5.17;;;;;;;17.43;58.14;100029.02;1767546;81;21626;-77
2022/09/26 08:39:01;;;;;;;7.33;5.17;;;;;;;17.59;57.55;100022.83;1756675;81;20930;-76
2022/09/26 08:42:16;;;;;;;6.10;5.00;;;;;;;17.79;56.95;100024.70;1767436;81;20982;-77
2022/09/26 08:46:26;;;;;;;6.77;5.17;;;;;;;18.00;56.05;100026.22;1737068;82;21497;-77
2022/09/26 08:47:49;;;;;;;6.13;4.93;;;;;;;18.21;55.39;100030.39;1751869;81;21480;-79
2022/09/26 08:50:55;;;;;;;6.17;4.97;;;;;;;18.41;54.64;100032.41;1726770;82;21623;-77
2022/09/26 08:53:27;;;;;;;5.70;4.17;;;;;;;18.59;53.75;100031.83;1670748;85;21091;-75
2022/09/26 08:55:55;;;;;;;5.33;4.57;;;;;;;18.73;52.94;100042.47;1670292;86;21119;-76
2022/09/26 08:58:42;;;;;;;7.40;5.00;;;;;;;18.74;52.32;100034.01;1716167;81;21833;-76
2022/09/26 09:01:13;;;;;;;6.27;4.37;;;;;;;18.79;51.93;100038.47;1785907;80;20975;-76
2022/09/26 09:04:12;;;;;;;5.47;4.27;;;;;;;18.88;51.98;100039.77;1744804;81;20983;-76
2022/09/26 09:06:39;;;;;;;6.60;5.30;;;;;;;19.02;51.41;100040.36;1767353;81;21054;-76
2022/09/26 09:09:07;;;;;;;15.93;7.10;;;;;;;19.15;49.86;100033.92;1786173;80;22283;-74
2022/09/26 09:12:02;;;;;;;7.50;4.60;;;;;;;19.25;49.77;100038.16;1743448;81;21163;-76
2022/09/26 09:14:56;;;;;;;6.27;4.53;;;;;;;19.39;49.62;100041.98;1786092;80;21410;-75
2022/09/26 09:17:57;;;;;;;10.00;6.93;;;;;;;19.57;49.67;100040.72;1765889;80;20966;-76
2022/09/26 09:20:52;;;;;;;6.23;4.20;;;;;;;19.77;49.33;100032.95;1784397;80;21498;-76
2022/09/26 09:24:01;;;;;;;5.87;4.17;;;;;;;19.84;48.19;100034.56;1706823;81;21093;-77
2022/09/26 09:26:41;;;;;;;7.33;4.80;;;;;;;19.78;48.27;100038.06;1785973;80;21639;-75
2022/09/26 09:29:46;;;;;;;5.97;4.30;;;;;;;19.88;48.32;100034.95;1767282;81;21116;-76
2022/09/26 09:32:25;;;;;;;25.20;6.90;;;;;;;20.03;48.27;100034.09;1756402;80;20960;-76
2022/09/26 09:35:13;;;;;;;10.60;6.97;;;;;;;20.10;47.17;100040.58;1684939;82;21006;-76
2022/09/26 09:37:48;;;;;;;9.80;6.40;;;;;;;20.18;46.53;100038.91;1751928;81;21524;-76
2022/09/26 09:40:43;;;;;;;7.63;4.87;;;;;;;20.32;46.84;100031.82;1736260;82;21289;-77
2022/09/26 09:43:18;;;;;;;5.77;4.33;;;;;;;20.52;46.87;100037.77;1659005;86;20955;-75
2022/09/26 09:45:49;;;;;;;5.07;3.73;;;;;;;20.79;46.83;100032.26;1690097;84;21088;-77
2022/09/26 09:48:16;;;;;;;5.00;3.67;;;;;;;20.93;46.22;100028.45;1736977;82;20975;-76
2022/09/26 09:50:58;;;;;;;4.80;3.50;;;;;;;21.05;46.40;100030.57;1761111;80;21091;-76
2022/09/26 09:54:20;;;;;;;5.43;3.60;;;;;;;21.22;45.98;100030.11;1759295;80;22276;-78
2022/09/26 09:57:25;;;;;;;4.47;3.00;;;;;;;21.34;44.28;100021.16;1732260;82;20988;-76
2022/09/26 10:00:15;;;;;;;3.53;2.23;;;;;;;21.36;41.76;100020.30;1737014;82;21533;-76
2022/09/26 10:03:06;;;;;;;4.87;2.57;;;;;;;21.42;40.77;100020.27;1755114;81;21655;-76
2022/09/26 10:05:43;;;;;;;4.67;2.43;;;;;;;21.48;41.37;100013.45;1736161;82;21039;-78
2022/09/26 10:08:30;;;;;;;4.20;2.50;;;;;;;21.72;41.95;100012.05;1769238;80;21266;-74
2022/09/26 10:11:32;;;;;;;5.73;2.60;;;;;;;21.89;40.22;100004.16;1768139;81;21613;-76
2022/09/26 10:14:32;;;;;;;4.15;2.65;;;;;;;22.02;40.62;100002.19;1768421;81;20998;-76
2022/09/26 10:17:14;;;;;;;4.10;2.70;;;;;;;22.09;38.91;99998.86;1786786;80;21573;-76
2022/09/26 10:19:43;;;;;;;3.33;2.23;;;;;;;22.06;38.79;99989.47;1767920;81;20983;-78
2022/09/26 10:22:24;;;;;;;3.77;2.20;;;;;;;22.09;39.22;99986.05;1768938;81;21109;-75
2022/09/26 10:24:48;;;;;;;3.80;2.60;;;;;;;22.18;39.28;99986.72;1785168;80;21045;-75
2022/09/26 10:27:21;;;;;;;5.53;2.70;;;;;;;22.21;39.55;99986.56;1786329;80;20985;-76
2022/09/26 10:29:56;;;;;;;;;;;;;;;22.18;39.45;99983.21;1767224;80;21594;-76
2022/09/26 10:32:22;;;;;;;3.93;2.43;;;;;;;22.09;39.44;99975.75;1786561;80;20132;-76
2022/09/26 10:35:17;;;;;;;5.20;2.60;;;;;;;21.96;39.10;99975.80;1786561;80;21102;-76
2022/09/26 10:38:03;;;;;;;4.43;2.90;;;;;;;21.83;39.84;99975.64;1787051;80;21080;-77
2022/09/26 10:40:47;;;;;;;3.60;2.80;;;;;;;21.78;40.03;99973.16;1765239;80;20965;-77
2022/09/26 10:43:31;;;;;;;4.23;2.50;;;;;;;21.81;40.83;99965.67;1787699;80;21449;-77
2022/09/26 10:46:10;;;;;;;5.33;3.00;;;;;;;21.82;39.33;99965.13;1789489;80;20993;-78
2022/09/26 10:49:01;;;;;;;4.47;2.80;;;;;;;21.71;39.87;99958.80;1765991;80;22932;-77
2022/09/26 10:51:44;;;;;;;3.40;2.60;;;;;;;21.67;40.04;99964.71;1676742;80;21133;-76
2022/09/26 10:54:15;;;;;;;4.33;2.50;;;;;;;21.70;39.80;99963.23;1744819;80;21051;-75
2022/09/26 10:56:46;;;;;;;3.92;2.58;;;;;;;21.73;39.89;99958.47;1739319;82;20967;-75
2022/09/26 10:59:16;;;;;;;3.55;2.60;;;;;;;21.80;39.79;99960.02;1768345;81;21009;-75
2022/09/26 11:01:49;;;;;;;4.83;3.07;;;;;;;21.87;39.76;99951.27;1766320;81;21110;-76
2022/09/26 11:07:26;;;;;;;5.70;2.77;;;;;;;21.77;39.67;99953.34;1746730;81;20959;-78
2022/09/26 11:10:01;;;;;;;4.50;2.73;;;;;;;21.75;40.06;99953.45;1783030;80;21500;-76
2022/09/26 11:12:38;;;;;;;3.63;3.00;;;;;;;21.78;40.33;99948.69;1761450;80;21034;-78
2022/09/26 11:15:11;;;;;;;3.77;2.90;;;;;;;21.85;40.90;99948.09;1772481;80;21318;-77
2022/09/26 11:17:46;;;;;;;3.90;2.97;;;;;;;21.89;40.52;99942.20;1767895;80;21054;-78
2022/09/26 11:20:49;;;;;;;4.00;2.90;;;;;;;21.91;40.40;99946.70;1767381;81;21030;-75
2022/09/26 11:23:44;;;;;;;4.63;3.23;;;;;;;21.92;40.57;99949.66;1767620;81;21019;-74
2022/09/26 11:26:32;;;;;;;6.47;3.50;;;;;;;21.89;40.92;99944.34;1738279;81;21081;-75
2022/09/26 11:29:16;;;;;;;4.27;3.17;;;;;;;21.83;40.99;99941.66;1754934;81;21207;-75
2022/09/26 11:31:54;;;;;;;5.37;3.27;;;;;;;21.81;40.79;99945.28;1737009;82;20982;-76
2022/09/26 11:34:39;;;;;;;4.40;3.30;;;;;;;21.74;41.13;99941.02;1767529;81;20950;-76
2022/09/26 11:37:30;;;;;;;5.07;3.30;;;;;;;21.68;41.20;99944.55;1765737;81;21010;-76
2022/09/26 11:40:20;;;;;;;4.53;3.40;;;;;;;21.61;41.28;99944.34;1767472;81;20958;-77
2022/09/26 11:43:17;;;;;;;5.57;3.50;;;;;;;21.57;41.54;99954.34;1755686;81;21236;-76
2022/09/26 11:46:02;;;;;;;3.93;2.93;;;;;;;21.59;41.57;99949.93;1767674;81;21018;-75
2022/09/26 11:49:19;;;;;;;6.90;3.12;;;;;;;21.59;41.67;99941.20;1766286;81;20975;-76
2022/09/26 11:52:17;;;;;;;6.17;3.60;;;;;;;21.60;41.65;99946.07;1723211;81;21081;-73
2022/09/26 11:55:01;;;;;;;5.20;3.20;;;;;;;21.57;41.66;99942.11;1786329;80;21098;-75
2022/09/26 11:58:07;;;;;;;5.13;3.40;;;;;;;21.59;42.15;99948.00;1767741;81;21991;-74
2022/09/26 12:01:26;;;;;;;4.63;3.13;;;;;;;21.61;42.25;99938.13;1767294;81;20995;-77
2022/09/26 12:04:02;;;;;;;7.03;3.57;;;;;;;21.65;42.12;99945.27;1786130;80;21015;-76
2022/09/26 12:06:52;;;;;;;4.93;3.70;;;;;;;21.70;42.49;99940.92;1767487;81;20971;-77
2022/09/26 12:09:46;;;;;;;4.60;3.47;;;;;;;21.75;42.39;99942.59;1738360;81;21058;-76
2022/09/26 12:12:43;;;;;;;5.43;4.07;;;;;;;21.75;42.22;99939.33;1767160;81;20971;-77
2022/09/26 12:15:19;;;;;;;5.73;3.90;;;;;;;21.72;42.15;99942.73;1730532;81;21018;-77
2022/09/26 12:18:31;;;;;;;6.00;3.67;;;;;;;21.71;42.17;99946.57;1786201;80;20931;-76